Menemsha, Massachusetts
Current Conditions -  °F | °C
As of 10:53 AM on Thursday 29 Jan 2015 (Local Time) from KMVY Reporting Station
Clear Clear  
Wind Chill: 22°   Ceiling: Unl
Heat Index: 29°   Visibility: 10mi
Dew Point: 16°   Wind: 7mph
Humidity: 58%   Direction: 340°NNW
Pressure: 30.29"   Gusts: NA
Location:  41.35°N, 70.76°W
Report Text: KMVY 291553Z 34006KT 10SM CLR M02/M09 A3029 RMK AO2 SLP258 T10171089
Loading
Personal Weather Stations






























Interactive Weather Map New forecast layout! Learn more

10-Day Weather Forecast

Advertisements
Track Severe Weather on mobile